Time;durP1;ratioP1;P1;durP2;ratioP2;P2;SDS_P1;SDS_P2;PMS_P1;PMS_P2;Temp;Humidity;BMP_temperature;BMP_pressure;BME280_temperature;BME280_humidity;BME280_pressure;Samples;Min_cycle;Max_cycle;Signal;HPM_P1;HPM_P2
2023/03/29 00:02:00;;;;;;;9.20;5.33;;;;;;;0.00;100.00;59042.03;10402870;28;20539;-75
2023/03/29 00:07:03;;;;;;;7.15;4.57;;;;;;;0.00;100.00;59042.03;10391082;28;20291;-76
2023/03/29 00:12:03;;;;;;;8.65;4.75;;;;;;;0.00;100.00;59042.03;10399089;28;20029;-76
2023/03/29 00:17:04;;;;;;;5.90;5.20;;;;;;;0.00;100.00;59042.03;10399067;28;20500;-77
2023/03/29 00:22:05;;;;;;;7.25;5.40;;;;;;;0.00;100.00;59042.03;10385625;28;20416;-77
2023/03/29 00:27:05;;;;;;;8.68;6.07;;;;;;;0.00;100.00;59042.03;10406055;28;20029;-77
2023/03/29 00:32:06;;;;;;;7.55;5.50;;;;;;;0.00;100.00;59042.03;10403305;28;20087;-77
2023/03/29 00:37:07;;;;;;;9.40;5.32;;;;;;;0.00;100.00;59042.03;10402933;28;20021;-76
2023/03/29 00:42:14;;;;;;;8.40;5.43;;;;;;;0.00;100.00;59042.03;10398967;28;20476;-77
2023/03/29 00:47:17;;;;;;;8.25;5.38;;;;;;;0.00;100.00;59042.03;10402921;28;20053;-77
2023/03/29 00:52:23;;;;;;;8.10;4.30;;;;;;;0.00;100.00;59042.03;10398330;28;20033;-76
2023/03/29 00:57:25;;;;;;;9.45;4.65;;;;;;;0.00;100.00;59042.03;10397942;28;20726;-76
2023/03/29 01:02:28;;;;;;;7.30;4.95;;;;;;;0.00;100.00;59042.03;10394952;28;20700;-77
2023/03/29 01:07:56;;;;;;;7.20;5.20;;;;;;;0.00;100.00;59042.03;10388470;28;20522;-76
2023/03/29 01:13:06;;;;;;;6.70;4.13;;;;;;;0.00;100.00;59042.03;10399307;28;20079;-76
2023/03/29 01:18:08;;;;;;;6.30;3.67;;;;;;;0.00;100.00;59042.03;10401482;28;20025;-77
2023/03/29 01:23:33;;;;;;;5.90;4.13;;;;;;;0.00;100.00;59042.03;10387226;28;20024;-76
2023/03/29 01:28:43;;;;;;;15.18;5.35;;;;;;;0.00;100.00;59042.03;10396582;28;20035;-77
2023/03/29 01:33:50;;;;;;;7.07;4.40;;;;;;;0.00;100.00;59042.03;10421298;28;20071;-76
2023/03/29 01:38:57;;;;;;;7.38;4.35;;;;;;;0.00;100.00;59042.03;10400412;28;20538;-77
2023/03/29 01:44:06;;;;;;;8.27;4.97;;;;;;;0.00;100.00;59042.03;10392583;28;20033;-76
2023/03/29 01:49:33;;;;;;;7.82;4.80;;;;;;;0.00;100.00;59042.03;10392026;28;20481;-77
2023/03/29 01:54:49;;;;;;;8.55;5.68;;;;;;;0.00;100.00;59042.03;10402834;28;20029;-76
2023/03/29 01:59:54;;;;;;;6.57;4.63;;;;;;;0.00;100.00;59042.03;10406664;28;20029;-77
2023/03/29 02:04:58;;;;;;;6.40;4.60;;;;;;;0.00;100.00;59042.03;10406797;28;20021;-75
2023/03/29 02:09:59;;;;;;;6.03;4.28;;;;;;;0.00;100.00;59042.03;10401903;28;20527;-76
2023/03/29 02:15:00;;;;;;;9.65;4.72;;;;;;;0.00;100.00;59042.03;10404838;28;20087;-76
2023/03/29 02:20:19;;;;;;;5.75;4.88;;;;;;;0.00;100.00;59042.03;10412871;28;20723;-77
2023/03/29 02:25:21;;;;;;;6.68;5.18;;;;;;;0.00;100.00;59042.03;10404426;28;20033;-77
2023/03/29 02:30:23;;;;;;;5.40;3.88;;;;;;;0.00;100.00;59042.03;10392997;28;20032;-77
2023/03/29 02:35:33;;;;;;;9.35;5.63;;;;;;;0.00;100.00;59042.03;10398967;28;20116;-76
2023/03/29 02:40:36;;;;;;;8.50;5.10;;;;;;;0.00;100.00;59042.03;10405354;28;20055;-76
2023/03/29 02:45:39;;;;;;;11.13;4.13;;;;;;;0.00;100.00;59042.03;10402639;28;20029;-76
2023/03/29 02:50:43;;;;;;;5.88;3.72;;;;;;;0.00;100.00;59042.03;10405029;28;20061;-76
2023/03/29 02:55:45;;;;;;;10.82;5.18;;;;;;;0.00;100.00;59042.03;10403229;28;20396;-76
2023/03/29 03:00:47;;;;;;;6.40;4.47;;;;;;;0.00;100.00;59042.03;10406684;28;20040;-76
2023/03/29 03:05:51;;;;;;;6.80;3.80;;;;;;;0.00;100.00;59042.03;10399996;28;20044;-75
2023/03/29 03:10:51;;;;;;;6.25;4.28;;;;;;;0.00;100.00;59042.03;10401301;28;20064;-75
2023/03/29 03:15:52;;;;;;;10.10;4.30;;;;;;;0.00;100.00;59042.03;10406334;28;20104;-76
2023/03/29 03:20:55;;;;;;;5.13;4.63;;;;;;;0.00;100.00;59042.03;10398363;28;20329;-76
2023/03/29 03:25:55;;;;;;;9.77;5.22;;;;;;;0.00;100.00;59042.03;10406028;28;20471;-76
2023/03/29 03:30:56;;;;;;;10.80;4.95;;;;;;;0.00;100.00;59042.03;10402265;28;20029;-76
2023/03/29 03:36:01;;;;;;;9.63;4.85;;;;;;;0.00;100.00;59042.03;10395546;28;20028;-77
2023/03/29 03:41:02;;;;;;;8.23;5.20;;;;;;;0.00;100.00;59042.03;10403127;28;20032;-76
2023/03/29 03:46:03;;;;;;;6.50;3.80;;;;;;;0.00;100.00;59042.03;10399395;28;20487;-77
2023/03/29 03:51:04;;;;;;;6.28;4.85;;;;;;;0.00;100.00;59042.03;10395372;28;20154;-76
2023/03/29 03:56:07;;;;;;;4.63;3.45;;;;;;;0.00;100.00;59042.03;10398313;28;20474;-77
2023/03/29 04:01:08;;;;;;;4.88;2.83;;;;;;;0.00;100.00;59042.03;10397807;28;20037;-75
2023/03/29 04:06:09;;;;;;;5.10;4.38;;;;;;;0.00;100.00;59042.03;10395739;28;20060;-78
2023/03/29 04:11:09;;;;;;;7.83;4.07;;;;;;;0.00;100.00;59042.03;10402306;28;20057;-77
2023/03/29 04:16:10;;;;;;;4.75;3.47;;;;;;;0.00;100.00;59042.03;10392923;28;20828;-77
2023/03/29 04:21:10;;;;;;;4.28;3.60;;;;;;;0.00;100.00;59042.03;10395315;28;20395;-76
2023/03/29 04:26:12;;;;;;;5.43;3.75;;;;;;;0.00;100.00;59042.03;10400437;28;20518;-75
2023/03/29 04:31:13;;;;;;;3.33;2.55;;;;;;;0.00;100.00;59042.03;10402894;28;20511;-80
2023/03/29 04:36:14;;;;;;;6.88;4.18;;;;;;;0.00;100.00;59042.03;10401369;28;20469;-80
2023/03/29 04:41:15;;;;;;;4.07;3.63;;;;;;;0.00;100.00;59042.03;10395800;28;20029;-73
2023/03/29 04:46:15;;;;;;;8.60;4.18;;;;;;;0.00;100.00;59042.03;10397937;28;20153;-80
2023/03/29 04:51:16;;;;;;;7.25;3.65;;;;;;;0.00;100.00;59042.03;10406707;28;20033;-80
2023/03/29 04:56:16;;;;;;;5.60;3.50;;;;;;;0.00;100.00;59042.03;10395688;28;20021;-80
2023/03/29 05:01:17;;;;;;;6.05;4.18;;;;;;;0.00;100.00;59042.03;10400735;28;20029;-79
2023/03/29 05:06:17;;;;;;;11.48;4.10;;;;;;;0.00;100.00;59042.03;10406018;28;20640;-78
2023/03/29 05:11:20;;;;;;;3.67;3.03;;;;;;;0.00;100.00;59042.03;10399088;28;20036;-80
2023/03/29 05:16:20;;;;;;;4.60;2.85;;;;;;;0.00;100.00;59042.03;10396755;28;20022;-79
2023/03/29 05:21:21;;;;;;;5.97;3.20;;;;;;;0.00;100.00;59042.03;10400541;28;20027;-79
2023/03/29 05:26:22;;;;;;;5.70;2.47;;;;;;;0.00;100.00;59042.03;10405120;28;20028;-79
2023/03/29 05:31:22;;;;;;;6.50;3.05;;;;;;;0.00;100.00;59042.03;10404395;28;20021;-81
2023/03/29 05:36:23;;;;;;;6.40;2.75;;;;;;;0.00;100.00;59042.03;10408242;28;20035;-80
2023/03/29 05:41:24;;;;;;;3.85;2.95;;;;;;;0.00;100.00;59042.03;10408662;28;20017;-81
2023/03/29 05:46:25;;;;;;;4.55;3.05;;;;;;;0.00;100.00;59042.03;10411242;28;20187;-80
2023/03/29 05:51:26;;;;;;;7.63;3.33;;;;;;;0.00;100.00;59042.03;10419089;28;20029;-80
2023/03/29 05:56:26;;;;;;;3.95;2.50;;;;;;;0.00;100.00;59042.03;10416411;28;20515;-81
2023/03/29 06:01:27;;;;;;;3.08;2.67;;;;;;;0.00;100.00;59042.03;10408058;28;20480;-80
2023/03/29 06:06:28;;;;;;;7.45;3.00;;;;;;;0.00;100.00;59042.03;10410366;28;20048;-79
2023/03/29 06:11:29;;;;;;;4.13;2.30;;;;;;;0.00;100.00;59042.03;10409923;28;20543;-80
2023/03/29 06:16:29;;;;;;;4.18;2.65;;;;;;;0.00;100.00;59042.03;10406117;28;20076;-79
2023/03/29 06:21:30;;;;;;;5.47;2.70;;;;;;;0.00;100.00;59042.03;10405893;28;20814;-80
2023/03/29 06:26:31;;;;;;;5.82;2.67;;;;;;;0.00;100.00;59042.03;10403770;28;20408;-81
2023/03/29 06:31:31;;;;;;;3.58;2.25;;;;;;;0.00;100.00;59042.03;10408550;28;20464;-86
2023/03/29 06:36:33;;;;;;;5.00;3.05;;;;;;;0.00;100.00;59042.03;10397294;28;20455;-84
2023/03/29 06:41:34;;;;;;;8.40;3.78;;;;;;;0.00;100.00;59042.03;10405134;28;20021;-79
2023/03/29 06:46:36;;;;;;;5.00;3.08;;;;;;;0.00;100.00;59042.03;10403671;28;20071;-81
2023/03/29 06:51:36;;;;;;;11.30;3.20;;;;;;;0.00;100.00;59042.03;10405012;28;20647;-79
2023/03/29 06:56:38;;;;;;;3.05;2.00;;;;;;;0.00;100.00;59042.03;10399453;28;20952;-80
2023/03/29 07:01:38;;;;;;;5.63;3.70;;;;;;;0.00;100.00;59042.03;10416501;28;20063;-80
2023/03/29 07:06:39;;;;;;;9.02;3.80;;;;;;;0.00;100.00;59042.03;10404644;28;20017;-80
2023/03/29 07:11:40;;;;;;;11.73;2.90;;;;;;;0.00;100.00;59042.03;10398208;28;20701;-81
2023/03/29 07:16:40;;;;;;;4.65;2.40;;;;;;;0.00;100.00;59042.03;10401103;28;20487;-79
2023/03/29 07:21:41;;;;;;;4.27;2.30;;;;;;;0.00;100.00;59042.03;10402400;28;20186;-79
2023/03/29 07:26:42;;;;;;;2.53;1.83;;;;;;;0.00;100.00;59042.03;10400243;28;20272;-79
2023/03/29 07:31:44;;;;;;;4.63;2.00;;;;;;;0.00;100.00;59042.03;10425890;28;20112;-79
2023/03/29 07:36:46;;;;;;;5.55;1.88;;;;;;;0.00;100.00;59042.03;10399467;28;20739;-71
2023/03/29 07:41:46;;;;;;;4.35;1.60;;;;;;;0.00;100.00;59042.03;10396876;28;20531;-70
2023/03/29 07:46:47;;;;;;;3.70;1.80;;;;;;;0.00;100.00;59042.03;10364767;28;20049;-75
2023/03/29 07:51:48;;;;;;;5.80;2.30;;;;;;;0.00;100.00;59042.03;10359323;28;20291;-77
2023/03/29 07:56:48;;;;;;;1.95;1.58;;;;;;;0.00;100.00;59042.03;10354288;28;20507;-76
2023/03/29 08:01:49;;;;;;;4.82;1.90;;;;;;;0.00;100.00;59042.03;10362444;28;20018;-75
2023/03/29 08:06:49;;;;;;;4.55;1.70;;;;;;;0.00;100.00;59042.03;10354904;28;20036;-75
2023/03/29 08:11:50;;;;;;;8.45;1.63;;;;;;;0.00;100.00;59042.03;10348583;28;20033;-75
2023/03/29 08:16:51;;;;;;;2.53;1.52;;;;;;;0.00;100.00;59042.03;10386889;28;20026;-75
2023/03/29 08:21:52;;;;;;;2.05;1.27;;;;;;;0.00;100.00;59042.03;10346338;28;20049;-74
2023/03/29 08:26:53;;;;;;;4.45;1.40;;;;;;;0.00;100.00;59042.03;10361960;28;20053;-75
2023/03/29 08:31:55;;;;;;;3.60;1.88;;;;;;;0.00;100.00;59042.03;10347557;28;20057;-74
2023/03/29 08:36:55;;;;;;;2.50;1.27;;;;;;;0.00;100.00;59042.03;10354056;28;20030;-74
2023/03/29 08:42:02;;;;;;;2.05;1.38;;;;;;;0.00;100.00;59042.03;10355015;28;20515;-75
2023/03/29 08:47:24;;;;;;;2.33;1.40;;;;;;;0.00;100.00;59042.03;10367082;28;20048;-73
2023/03/29 08:52:36;;;;;;;2.08;1.20;;;;;;;0.00;100.00;59042.03;10368835;28;20087;-76
2023/03/29 08:57:50;;;;;;;2.22;1.25;;;;;;;0.00;100.00;59042.03;10351390;28;20037;-74
2023/03/29 09:02:53;;;;;;;4.47;1.60;;;;;;;0.00;100.00;59042.03;10348808;28;20068;-74
2023/03/29 09:07:53;;;;;;;2.03;0.90;;;;;;;0.00;100.00;59042.03;10354520;28;20044;-75
2023/03/29 09:13:12;;;;;;;3.92;1.70;;;;;;;0.00;100.00;59042.03;10364596;28;20570;-75
2023/03/29 09:18:40;;;;;;;3.08;1.52;;;;;;;0.00;100.00;59042.03;10360859;28;20025;-73
2023/03/29 09:23:54;;;;;;;4.80;1.37;;;;;;;0.00;100.00;59042.03;10377310;28;20025;-75
2023/03/29 09:29:05;;;;;;;3.03;1.27;;;;;;;0.00;100.00;59042.03;10372879;28;20683;-74
2023/03/29 09:34:17;;;;;;;3.58;1.63;;;;;;;0.00;100.00;59042.03;10378876;28;20021;-73
2023/03/29 09:39:22;;;;;;;5.57;1.10;;;;;;;0.00;100.00;59042.03;10371562;28;20428;-73
2023/03/29 09:44:45;;;;;;;2.80;2.45;;;;;;;0.00;100.00;59042.03;10359418;28;20137;-74
2023/03/29 09:49:50;;;;;;;2.03;1.27;;;;;;;0.00;100.00;59042.03;10378611;28;20871;-74
2023/03/29 09:54:51;;;;;;;2.45;1.33;;;;;;;0.00;100.00;59042.03;10379368;28;20033;-72
2023/03/29 09:59:51;;;;;;;5.93;1.20;;;;;;;0.00;100.00;59042.03;10379139;28;20030;-73
2023/03/29 10:05:02;;;;;;;2.72;1.20;;;;;;;0.00;100.00;59042.03;10378306;28;20115;-74
2023/03/29 10:10:09;;;;;;;3.10;1.17;;;;;;;0.00;100.00;59042.03;10379304;28;20041;-73
2023/03/29 10:15:13;;;;;;;2.45;1.05;;;;;;;0.00;100.00;59042.03;10380228;28;20059;-73
2023/03/29 10:20:18;;;;;;;2.25;0.82;;;;;;;0.00;100.00;59042.03;10384568;28;20029;-74
2023/03/29 10:25:31;;;;;;;3.60;1.27;;;;;;;0.00;100.00;59042.03;10386282;28;20104;-73
2023/03/29 10:30:36;;;;;;;3.75;0.77;;;;;;;0.00;100.00;59042.03;10385597;28;20251;-73
2023/03/29 10:35:40;;;;;;;6.90;0.77;;;;;;;0.00;100.00;59042.03;10386055;28;20037;-73
2023/03/29 10:40:46;;;;;;;2.17;1.00;;;;;;;0.00;100.00;59042.03;10383895;28;20435;-72
2023/03/29 10:45:53;;;;;;;2.75;1.23;;;;;;;0.00;100.00;59042.03;10385334;28;20103;-73
2023/03/29 10:50:58;;;;;;;2.90;1.23;;;;;;;0.00;100.00;59042.03;10385371;28;20333;-73
2023/03/29 10:56:25;;;;;;;3.47;1.23;;;;;;;0.00;100.00;59042.03;10386412;28;20056;-73
2023/03/29 11:01:44;;;;;;;1.90;0.70;;;;;;;0.00;100.00;59042.03;10383439;28;20392;-74
2023/03/29 11:07:00;;;;;;;1.80;0.93;;;;;;;0.00;100.00;59042.03;10384478;28;20105;-74
2023/03/29 11:12:14;;;;;;;2.50;0.70;;;;;;;0.00;100.00;59042.03;10384928;28;20029;-73
2023/03/29 11:17:26;;;;;;;2.17;0.75;;;;;;;0.00;100.00;59042.03;10384565;28;20080;-73
2023/03/29 11:22:38;;;;;;;8.65;0.90;;;;;;;0.00;100.00;59042.03;10384638;28;20461;-72
2023/03/29 11:27:57;;;;;;;4.43;1.27;;;;;;;0.00;100.00;59042.03;10382949;28;20029;-73
2023/03/29 11:33:13;;;;;;;5.07;1.10;;;;;;;0.00;100.00;59042.03;10415873;28;20132;-72
2023/03/29 11:38:32;;;;;;;1.58;1.13;;;;;;;0.00;100.00;59042.03;10382373;28;20029;-73
2023/03/29 11:43:53;;;;;;;;;;;;;;;0.00;100.00;59042.03;10354770;28;20026;-73
2023/03/29 11:49:14;;;;;;;1.80;1.10;;;;;;;0.00;100.00;59042.03;10374822;28;20479;-73
2023/03/29 11:54:17;;;;;;;7.90;1.10;;;;;;;0.00;100.00;59042.03;10382943;28;20404;-73
2023/03/29 11:59:27;;;;;;;1.60;1.10;;;;;;;0.00;100.00;59042.03;10382415;28;20097;-73
2023/03/29 12:04:34;;;;;;;3.08;2.58;;;;;;;0.00;100.00;59042.03;10382572;28;20435;-74
2023/03/29 12:09:48;;;;;;;2.72;1.20;;;;;;;0.00;100.00;59042.03;10381651;28;20100;-73
2023/03/29 12:14:55;;;;;;;5.63;1.45;;;;;;;0.00;100.00;59042.03;10382473;28;20040;-73
2023/03/29 12:20:05;;;;;;;2.75;1.52;;;;;;;0.00;100.00;59042.03;10370287;28;20025;-75
2023/03/29 12:25:11;;;;;;;4.28;1.20;;;;;;;0.00;100.00;59042.03;10363381;28;20026;-74
2023/03/29 12:30:37;;;;;;;2.55;0.98;;;;;;;0.00;100.00;59042.03;10366411;28;20400;-75
2023/03/29 12:36:09;;;;;;;2.33;1.00;;;;;;;0.00;100.00;59042.03;10357223;28;20034;-74
2023/03/29 12:41:22;;;;;;;4.47;1.50;;;;;;;0.00;100.00;59042.03;10352851;28;20025;-73
2023/03/29 12:46:25;;;;;;;3.55;1.20;;;;;;;0.00;100.00;59042.03;10366274;28;20056;-76
2023/03/29 12:51:31;;;;;;;5.00;1.65;;;;;;;0.00;100.00;59042.03;10377375;28;20034;-74
2023/03/29 12:56:56;;;;;;;2.70;1.23;;;;;;;0.00;100.00;59042.03;10355340;28;20060;-75
2023/03/29 13:02:06;;;;;;;2.25;0.82;;;;;;;0.00;100.00;59042.03;10361573;28;20033;-74
2023/03/29 13:07:27;;;;;;;2.35;1.58;;;;;;;0.00;100.00;59042.03;10364885;28;20201;-73
2023/03/29 13:12:34;;;;;;;4.30;1.50;;;;;;;0.00;100.00;59042.03;10357810;28;20042;-73
2023/03/29 13:17:46;;;;;;;2.55;1.42;;;;;;;0.00;100.00;59042.03;10354044;28;20136;-74
2023/03/29 13:22:50;;;;;;;8.10;1.15;;;;;;;0.00;100.00;59042.03;10355557;28;20079;-72
2023/03/29 13:27:55;;;;;;;3.03;1.77;;;;;;;0.00;100.00;59042.03;10354720;28;20087;-73
2023/03/29 13:33:28;;;;;;;2.85;1.30;;;;;;;0.00;100.00;59042.03;10351484;28;20034;-72
2023/03/29 13:38:34;;;;;;;6.90;1.45;;;;;;;0.00;100.00;59042.03;10352470;28;20420;-72
2023/03/29 13:43:50;;;;;;;4.53;1.85;;;;;;;0.00;100.00;59042.03;10356946;28;20025;-73
2023/03/29 13:49:15;;;;;;;3.92;1.40;;;;;;;0.00;100.00;59042.03;10359639;28;20548;-76
2023/03/29 13:54:25;;;;;;;2.13;1.30;;;;;;;0.00;100.00;59042.03;10377068;28;20501;-72
2023/03/29 13:59:46;;;;;;;3.28;1.48;;;;;;;0.00;100.00;59042.03;10354585;28;20145;-74
2023/03/29 14:04:49;;;;;;;10.77;1.70;;;;;;;0.00;100.00;59042.03;10356970;28;20034;-71
2023/03/29 14:09:51;;;;;;;2.40;1.48;;;;;;;0.00;100.00;59042.03;10359919;28;20029;-74
2023/03/29 14:14:58;;;;;;;6.70;1.92;;;;;;;0.00;100.00;59042.03;10358763;28;20545;-73
2023/03/29 14:20:01;;;;;;;1.77;1.13;;;;;;;0.00;100.00;59042.03;10357841;28;20065;-73
2023/03/29 14:25:11;;;;;;;1.85;1.10;;;;;;;0.00;100.00;59042.03;10360474;28;20065;-73
2023/03/29 14:30:20;;;;;;;3.25;1.40;;;;;;;0.00;100.00;59042.03;10352320;28;20530;-72
2023/03/29 14:35:30;;;;;;;7.20;1.83;;;;;;;0.00;100.00;59042.03;10360890;28;20053;-73
2023/03/29 14:40:31;;;;;;;3.50;1.55;;;;;;;0.00;100.00;59042.03;10364917;28;20029;-73
2023/03/29 14:45:32;;;;;;;5.47;1.80;;;;;;;0.00;100.00;59042.03;10363872;28;20459;-75
2023/03/29 14:50:32;;;;;;;3.95;1.35;;;;;;;0.00;100.00;59042.03;10382831;28;20049;-73
2023/03/29 14:55:35;;;;;;;3.90;1.85;;;;;;;0.00;100.00;59042.03;10384916;28;20122;-73
2023/03/29 15:00:43;;;;;;;4.63;1.80;;;;;;;0.00;100.00;59042.03;10351580;28;20036;-72
2023/03/29 15:05:50;;;;;;;3.45;1.25;;;;;;;0.00;100.00;59042.03;10371004;28;20040;-73
2023/03/29 15:10:51;;;;;;;5.97;1.88;;;;;;;0.00;100.00;59042.03;10384138;28;20033;-73
2023/03/29 15:15:58;;;;;;;4.93;1.50;;;;;;;0.00;100.00;59042.03;10383691;28;20036;-73
2023/03/29 15:21:00;;;;;;;4.40;1.85;;;;;;;0.00;100.00;59042.03;10383673;28;20029;-72
2023/03/29 15:26:13;;;;;;;4.93;1.70;;;;;;;0.00;100.00;59042.03;10358042;28;20026;-73
2023/03/29 15:31:18;;;;;;;6.20;1.67;;;;;;;0.00;100.00;59042.03;10371444;28;20440;-72
2023/03/29 15:36:18;;;;;;;4.70;2.15;;;;;;;0.00;100.00;59042.03;10383114;28;20037;-73
2023/03/29 15:41:19;;;;;;;4.18;1.80;;;;;;;0.00;100.00;59042.03;10383109;28;20353;-72
2023/03/29 15:46:20;;;;;;;8.75;2.28;;;;;;;0.00;100.00;59042.03;10382017;28;20056;-73
2023/03/29 15:51:21;;;;;;;5.32;2.22;;;;;;;0.00;100.00;59042.03;10379149;28;20038;-73
2023/03/29 15:56:21;;;;;;;3.15;1.67;;;;;;;0.00;100.00;59042.03;10348010;28;20598;-73
2023/03/29 16:01:40;;;;;;;5.38;2.00;;;;;;;0.00;100.00;59042.03;10383055;28;20029;-74
2023/03/29 16:06:41;;;;;;;;;;;;;;;0.00;100.00;59042.03;10369975;28;20415;-73
2023/03/29 16:11:43;;;;;;;2.67;1.65;;;;;;;0.00;100.00;59042.03;10379592;28;19917;-73
2023/03/29 16:16:43;;;;;;;4.20;1.90;;;;;;;0.00;100.00;59042.03;10370911;28;20034;-72
2023/03/29 16:21:44;;;;;;;2.70;1.65;;;;;;;0.00;100.00;59042.03;10377246;28;20034;-72
2023/03/29 16:26:46;;;;;;;8.32;2.25;;;;;;;0.00;100.00;59042.03;10379783;28;20397;-73
2023/03/29 16:31:48;;;;;;;5.78;2.08;;;;;;;0.00;100.00;59042.03;10365415;28;20025;-72
2023/03/29 16:36:49;;;;;;;4.43;1.67;;;;;;;0.00;100.00;59042.03;10377149;28;20805;-73
2023/03/29 16:41:49;;;;;;;2.60;1.67;;;;;;;0.00;100.00;59042.03;10378374;28;20532;-71
2023/03/29 16:46:56;;;;;;;6.95;1.88;;;;;;;0.00;100.00;59042.03;10354804;28;20045;-72
2023/03/29 16:51:58;;;;;;;6.55;2.35;;;;;;;0.00;100.00;59042.03;10380363;28;20038;-71
2023/03/29 16:56:59;;;;;;;4.43;1.83;;;;;;;0.00;100.00;59042.03;10376203;28;20072;-71
2023/03/29 17:02:00;;;;;;;8.70;1.92;;;;;;;0.00;100.00;59042.03;10377953;28;20423;-71
2023/03/29 17:07:01;;;;;;;6.65;1.92;;;;;;;0.00;100.00;59042.03;10387432;28;20033;-72
2023/03/29 17:12:01;;;;;;;5.95;2.50;;;;;;;0.00;100.00;59042.03;10374876;28;20025;-74
2023/03/29 17:17:02;;;;;;;7.30;2.75;;;;;;;0.00;100.00;59042.03;10374396;28;20062;-73
2023/03/29 17:22:02;;;;;;;4.22;2.30;;;;;;;0.00;100.00;59042.03;10381281;28;20032;-70
2023/03/29 17:27:02;;;;;;;5.90;2.78;;;;;;;0.00;100.00;59042.03;10366398;28;20449;-72
2023/03/29 17:32:03;;;;;;;7.18;2.35;;;;;;;0.00;100.00;59042.03;10370358;28;20038;-71
2023/03/29 17:37:04;;;;;;;7.55;2.33;;;;;;;0.00;100.00;59042.03;10377121;28;20091;-75
2023/03/29 17:42:04;;;;;;;5.93;2.78;;;;;;;0.00;100.00;59042.03;10414312;28;20498;-73
2023/03/29 17:47:05;;;;;;;4.82;1.95;;;;;;;0.00;100.00;59042.03;10375414;28;20480;-75
2023/03/29 17:52:06;;;;;;;2.90;1.55;;;;;;;0.00;100.00;59042.03;10382719;28;20555;-76
2023/03/29 17:57:06;;;;;;;3.70;2.10;;;;;;;0.00;100.00;59042.03;10382667;28;20044;-79
2023/03/29 18:02:19;;;;;;;6.90;2.63;;;;;;;0.00;100.00;59042.03;10380524;28;20030;-88
2023/03/29 18:07:22;;;;;;;5.03;2.25;;;;;;;0.00;100.00;59042.03;10397376;28;20037;-84
2023/03/29 18:12:24;;;;;;;7.15;2.40;;;;;;;0.00;100.00;59042.03;10383180;28;20435;-78
2023/03/29 18:17:27;;;;;;;4.82;2.20;;;;;;;0.00;100.00;59042.03;10380318;28;20033;-72
2023/03/29 18:22:28;;;;;;;1.83;1.40;;;;;;;0.00;100.00;59042.03;10367306;28;20022;-74
2023/03/29 18:27:29;;;;;;;4.40;2.17;;;;;;;0.00;100.00;59042.03;10383345;28;20029;-72
2023/03/29 18:32:30;;;;;;;8.40;2.88;;;;;;;0.00;100.00;59042.03;10372066;28;20036;-72
2023/03/29 18:37:30;;;;;;;3.30;2.08;;;;;;;0.00;100.00;59042.03;10387479;28;20032;-79
2023/03/29 18:42:30;;;;;;;3.30;2.17;;;;;;;0.00;100.00;59042.03;10384270;28;20037;-71
2023/03/29 18:47:31;;;;;;;3.15;1.80;;;;;;;0.00;100.00;59042.03;10385544;28;20067;-74
2023/03/29 18:52:32;;;;;;;4.13;1.98;;;;;;;0.00;100.00;59042.03;10388598;28;20412;-79
2023/03/29 18:57:33;;;;;;;6.23;1.97;;;;;;;0.00;100.00;59042.03;10382954;28;20033;-79
2023/03/29 19:02:33;;;;;;;7.20;2.22;;;;;;;0.00;100.00;59042.03;10376578;28;20283;-76
2023/03/29 19:07:34;;;;;;;4.07;2.58;;;;;;;0.00;100.00;59042.03;10379230;28;20033;-76
2023/03/29 19:12:35;;;;;;;5.95;2.72;;;;;;;0.00;100.00;59042.03;10381190;28;20113;-76
2023/03/29 19:17:35;;;;;;;6.57;1.95;;;;;;;0.00;100.00;59042.03;10387366;28;20074;-77
2023/03/29 19:22:37;;;;;;;7.10;2.40;;;;;;;0.00;100.00;59042.03;10379032;28;20064;-74
2023/03/29 19:27:37;;;;;;;4.72;2.17;;;;;;;0.00;100.00;59042.03;10387157;28;20751;-77
2023/03/29 19:32:38;;;;;;;2.50;1.83;;;;;;;0.00;100.00;59042.03;10392336;28;20025;-77
2023/03/29 19:37:38;;;;;;;4.93;2.28;;;;;;;0.00;100.00;59042.03;10385568;28;20044;-76
2023/03/29 19:42:49;;;;;;;7.32;2.65;;;;;;;0.00;100.00;59042.03;10395129;28;20088;-76
2023/03/29 19:47:54;;;;;;;3.58;2.15;;;;;;;0.00;100.00;59042.03;10399952;28;20492;-75
2023/03/29 19:52:55;;;;;;;3.58;2.13;;;;;;;0.00;100.00;59042.03;10396592;28;20504;-74
2023/03/29 19:58:01;;;;;;;3.47;1.88;;;;;;;0.00;100.00;59042.03;10391224;28;20033;-79
2023/03/29 20:03:02;;;;;;;5.85;2.47;;;;;;;0.00;100.00;59042.03;10387027;28;20519;-74
2023/03/29 20:08:03;;;;;;;5.75;2.03;;;;;;;0.00;100.00;59042.03;10393288;28;20021;-71
2023/03/29 20:13:05;;;;;;;9.25;2.35;;;;;;;0.00;100.00;59042.03;10388844;28;20516;-75
2023/03/29 20:18:05;;;;;;;4.43;2.00;;;;;;;0.00;100.00;59042.03;10388526;28;20037;-75
2023/03/29 20:23:06;;;;;;;11.02;2.15;;;;;;;0.00;100.00;59042.03;10389263;28;20021;-76
2023/03/29 20:28:07;;;;;;;5.28;1.90;;;;;;;0.00;100.00;59042.03;10392996;28;20033;-77
2023/03/29 20:33:07;;;;;;;4.38;1.80;;;;;;;0.00;100.00;59042.03;10384136;28;20465;-78
2023/03/29 20:38:09;;;;;;;3.25;2.03;;;;;;;0.00;100.00;59042.03;10396716;28;20472;-77
2023/03/29 20:43:12;;;;;;;4.32;1.67;;;;;;;0.00;100.00;59042.03;10380970;28;20469;-77
2023/03/29 20:48:13;;;;;;;7.80;2.25;;;;;;;0.00;100.00;59042.03;10380652;28;20432;-77
2023/03/29 20:53:15;;;;;;;3.10;1.67;;;;;;;0.00;100.00;59042.03;10381148;28;20069;-77
2023/03/29 20:58:15;;;;;;;4.35;2.22;;;;;;;0.00;100.00;59042.03;10365369;28;20067;-79
2023/03/29 21:03:16;;;;;;;7.88;1.80;;;;;;;0.00;100.00;59042.03;10380185;28;20035;-77
2023/03/29 21:08:17;;;;;;;5.70;2.03;;;;;;;0.00;100.00;59042.03;10381346;28;20029;-77
2023/03/29 21:13:17;;;;;;;3.38;1.90;;;;;;;0.00;100.00;59042.03;10376180;28;20569;-76
2023/03/29 21:18:18;;;;;;;5.43;1.80;;;;;;;0.00;100.00;59042.03;10371558;28;20419;-77
2023/03/29 21:23:19;;;;;;;2.65;1.55;;;;;;;0.00;100.00;59042.03;10370633;28;20025;-77
2023/03/29 21:28:20;;;;;;;3.30;1.88;;;;;;;0.00;100.00;59042.03;10381249;28;20041;-77
2023/03/29 21:33:20;;;;;;;2.80;1.80;;;;;;;0.00;100.00;59042.03;10381461;28;20468;-77
2023/03/29 21:38:21;;;;;;;3.97;2.17;;;;;;;0.00;100.00;59042.03;10362068;28;20416;-78
2023/03/29 21:43:21;;;;;;;4.13;2.10;;;;;;;0.00;100.00;59042.03;10342132;28;20029;-78
2023/03/29 21:48:22;;;;;;;2.22;1.55;;;;;;;0.00;100.00;59042.03;10380248;28;20057;-78
2023/03/29 21:53:23;;;;;;;5.40;1.95;;;;;;;0.00;100.00;59042.03;10381052;28;20120;-77
2023/03/29 21:58:24;;;;;;;4.05;2.00;;;;;;;0.00;100.00;59042.03;10380260;28;20538;-76
2023/03/29 22:03:24;;;;;;;3.78;1.52;;;;;;;0.00;100.00;59042.03;10379035;28;20108;-75
2023/03/29 22:08:25;;;;;;;6.53;1.80;;;;;;;0.00;100.00;59042.03;10380003;28;20040;-77
2023/03/29 22:13:27;;;;;;;4.95;1.83;;;;;;;0.00;100.00;59042.03;10370729;28;20080;-78
2023/03/29 22:18:40;;;;;;;3.30;1.52;;;;;;;0.00;100.00;59042.03;10383967;28;20526;-77
2023/03/29 22:23:42;;;;;;;3.55;1.60;;;;;;;0.00;100.00;59042.03;10387306;28;20082;-77
2023/03/29 22:28:43;;;;;;;4.90;2.17;;;;;;;0.00;100.00;59042.03;10387383;28;20083;-77
2023/03/29 22:33:45;;;;;;;5.47;2.38;;;;;;;0.00;100.00;59042.03;10386161;28;20397;-77
2023/03/29 22:38:45;;;;;;;4.07;1.52;;;;;;;0.00;100.00;59042.03;10392903;28;20064;-77
2023/03/29 22:43:46;;;;;;;3.97;1.75;;;;;;;0.00;100.00;59042.03;10387528;28;20059;-76
2023/03/29 22:48:47;;;;;;;3.35;1.70;;;;;;;0.00;100.00;59042.03;10385635;28;20054;-77
2023/03/29 22:53:48;;;;;;;3.38;1.73;;;;;;;0.00;100.00;59042.03;10385488;28;20083;-78
2023/03/29 22:58:48;;;;;;;4.45;1.60;;;;;;;0.00;100.00;59042.03;10386113;28;20029;-77
2023/03/29 23:03:49;;;;;;;5.87;1.90;;;;;;;0.00;100.00;59042.03;10386334;28;20029;-77
2023/03/29 23:08:49;;;;;;;1.58;1.30;;;;;;;0.00;100.00;59042.03;10385397;28;20314;-77
2023/03/29 23:13:51;;;;;;;3.20;1.85;;;;;;;0.00;100.00;59042.03;10386641;28;20039;-78
2023/03/29 23:18:51;;;;;;;4.47;1.75;;;;;;;0.00;100.00;59042.03;10366302;28;20026;-77
2023/03/29 23:23:52;;;;;;;3.00;1.65;;;;;;;0.00;100.00;59042.03;10361202;28;20688;-79
2023/03/29 23:28:53;;;;;;;3.97;1.73;;;;;;;0.00;100.00;59042.03;10385668;28;20029;-76
2023/03/29 23:33:53;;;;;;;7.43;1.60;;;;;;;0.00;100.00;59042.03;10371633;28;20025;-77